Terminal Aerodrome Forecast
Issued by NWS Cleveland, OH

Home | Current Version | Previous Version | Text Only | Print | Product List | Glossary On
Versions: 1 2 3 4 5 6 7 8 9 10 11 12 13 14 15 16 17 18 19 20 21 22
000
FTUS41 KCLE 302300
TAFYNG
TAF
KYNG 302340Z 0100/0124 33006KT P6SM SCT015 BKN022
     FM010400 35003KT 3SM BR BKN005
      TEMPO 0104/0108 2SM BR OVC003
     FM010800 36002KT 3/4SM BR VV003
     FM011400 08004KT 5SM BR OVC010
     FM011800 09005KT P6SM BKN020=

USA.gov is the U.S. government's official web portal to all federal, state and local government web resources and services.